sensor_id;sensor_type;location;lat;lon;timestamp;temperature;humidity
27890;DHT22;15238;49.082;9.102;2023-02-07T00:00:38;0.60;99.90
27890;DHT22;15238;49.082;9.102;2023-02-07T00:02:42;0.50;99.90
27890;DHT22;15238;49.082;9.102;2023-02-07T00:04:43;0.50;99.90
27890;DHT22;15238;49.082;9.102;2023-02-07T00:06:44;0.60;99.90
27890;DHT22;15238;49.082;9.102;2023-02-07T00:08:45;0.50;99.90
27890;DHT22;15238;49.082;9.102;2023-02-07T00:10:46;0.50;99.90
27890;DHT22;15238;49.082;9.102;2023-02-07T00:12:46;0.50;99.90
27890;DHT22;15238;49.082;9.102;2023-02-07T00:14:47;0.50;99.90
27890;DHT22;15238;49.082;9.102;2023-02-07T00:16:47;0.40;99.90
27890;DHT22;15238;49.082;9.102;2023-02-07T00:18:48;0.40;99.90
27890;DHT22;15238;49.082;9.102;2023-02-07T00:21:09;0.30;99.90
27890;DHT22;15238;49.082;9.102;2023-02-07T00:23:10;0.30;99.90
27890;DHT22;15238;49.082;9.102;2023-02-07T00:25:11;0.30;99.90
27890;DHT22;15238;49.082;9.102;2023-02-07T00:27:11;0.20;99.90
27890;DHT22;15238;49.082;9.102;2023-02-07T00:29:12;0.20;99.90
27890;DHT22;15238;49.082;9.102;2023-02-07T00:31:28;0.20;99.90
27890;DHT22;15238;49.082;9.102;2023-02-07T00:33:29;0.10;99.90
27890;DHT22;15238;49.082;9.102;2023-02-07T00:35:29;0.10;99.90
27890;DHT22;15238;49.082;9.102;2023-02-07T00:37:30;0.00;99.90
27890;DHT22;15238;49.082;9.102;2023-02-07T00:39:31;0.00;99.90
27890;DHT22;15238;49.082;9.102;2023-02-07T00:41:31;-0.10;99.90
27890;DHT22;15238;49.082;9.102;2023-02-07T00:43:32;-0.10;99.90
27890;DHT22;15238;49.082;9.102;2023-02-07T00:45:33;-0.20;99.90
27890;DHT22;15238;49.082;9.102;2023-02-07T00:47:33;-0.20;99.90
27890;DHT22;15238;49.082;9.102;2023-02-07T00:49:34;-0.20;99.90
27890;DHT22;15238;49.082;9.102;2023-02-07T00:51:35;-0.30;99.90
27890;DHT22;15238;49.082;9.102;2023-02-07T00:53:35;-0.30;99.90
27890;DHT22;15238;49.082;9.102;2023-02-07T00:55:36;-0.30;99.90
27890;DHT22;15238;49.082;9.102;2023-02-07T00:57:37;-0.30;99.90
27890;DHT22;15238;49.082;9.102;2023-02-07T00:59:37;-0.40;99.90
27890;DHT22;15238;49.082;9.102;2023-02-07T01:01:38;-0.40;99.90
27890;DHT22;15238;49.082;9.102;2023-02-07T01:03:38;-0.40;99.90
27890;DHT22;15238;49.082;9.102;2023-02-07T01:05:39;-0.50;99.90
27890;DHT22;15238;49.082;9.102;2023-02-07T01:07:40;-0.50;99.90
27890;DHT22;15238;49.082;9.102;2023-02-07T01:09:40;-0.50;99.90
27890;DHT22;15238;49.082;9.102;2023-02-07T01:11:41;-0.60;99.90
27890;DHT22;15238;49.082;9.102;2023-02-07T01:13:42;-0.60;99.90
27890;DHT22;15238;49.082;9.102;2023-02-07T01:15:45;-0.60;99.90
27890;DHT22;15238;49.082;9.102;2023-02-07T01:17:46;-0.60;99.90
27890;DHT22;15238;49.082;9.102;2023-02-07T01:19:47;-0.70;99.90
27890;DHT22;15238;49.082;9.102;2023-02-07T01:21:47;-0.70;99.90
27890;DHT22;15238;49.082;9.102;2023-02-07T01:23:48;-0.80;99.90
27890;DHT22;15238;49.082;9.102;2023-02-07T01:25:49;-0.80;99.90
27890;DHT22;15238;49.082;9.102;2023-02-07T01:27:49;-0.80;99.90
27890;DHT22;15238;49.082;9.102;2023-02-07T01:29:50;-0.80;99.90
27890;DHT22;15238;49.082;9.102;2023-02-07T01:31:51;-0.90;99.90
27890;DHT22;15238;49.082;9.102;2023-02-07T01:33:57;-0.90;99.90
27890;DHT22;15238;49.082;9.102;2023-02-07T01:35:58;-0.90;99.90
27890;DHT22;15238;49.082;9.102;2023-02-07T01:37:59;-1.00;99.90
27890;DHT22;15238;49.082;9.102;2023-02-07T01:40:02;-1.00;99.90
27890;DHT22;15238;49.082;9.102;2023-02-07T01:42:02;-1.00;99.90
27890;DHT22;15238;49.082;9.102;2023-02-07T01:44:57;-1.00;99.90
27890;DHT22;15238;49.082;9.102;2023-02-07T01:46:30;-1.10;99.90
27890;DHT22;15238;49.082;9.102;2023-02-07T01:48:34;-1.10;99.90
27890;DHT22;15238;49.082;9.102;2023-02-07T01:50:36;-1.10;99.90
27890;DHT22;15238;49.082;9.102;2023-02-07T01:52:40;-1.20;99.90
27890;DHT22;15238;49.082;9.102;2023-02-07T01:54:42;-1.10;99.90
27890;DHT22;15238;49.082;9.102;2023-02-07T01:56:45;-1.20;99.90
27890;DHT22;15238;49.082;9.102;2023-02-07T01:58:47;-1.20;99.90
27890;DHT22;15238;49.082;9.102;2023-02-07T02:00:49;-1.10;99.90
27890;DHT22;15238;49.082;9.102;2023-02-07T02:02:50;-1.20;99.90
27890;DHT22;15238;49.082;9.102;2023-02-07T02:04:51;-1.20;99.90
27890;DHT22;15238;49.082;9.102;2023-02-07T02:06:53;-1.30;99.90
27890;DHT22;15238;49.082;9.102;2023-02-07T02:08:57;-1.30;99.90
27890;DHT22;15238;49.082;9.102;2023-02-07T02:11:17;-1.40;99.90
27890;DHT22;15238;49.082;9.102;2023-02-07T02:30:55;-1.60;99.90
27890;DHT22;15238;49.082;9.102;2023-02-07T02:33:16;-1.60;99.90
27890;DHT22;15238;49.082;9.102;2023-02-07T02:35:55;-1.60;99.90
27890;DHT22;15238;49.082;9.102;2023-02-07T02:38:08;-1.70;99.90
27890;DHT22;15238;49.082;9.102;2023-02-07T02:40:32;-1.70;99.90
27890;DHT22;15238;49.082;9.102;2023-02-07T02:42:41;-1.70;99.90
27890;DHT22;15238;49.082;9.102;2023-02-07T02:47:21;-1.70;99.90
27890;DHT22;15238;49.082;9.102;2023-02-07T02:49:23;-1.80;99.90
27890;DHT22;15238;49.082;9.102;2023-02-07T02:51:28;-1.80;99.90
27890;DHT22;15238;49.082;9.102;2023-02-07T02:53:28;-1.80;99.90
27890;DHT22;15238;49.082;9.102;2023-02-07T02:57:56;-1.80;99.90
27890;DHT22;15238;49.082;9.102;2023-02-07T03:00:11;-1.80;99.90
27890;DHT22;15238;49.082;9.102;2023-02-07T03:02:45;-1.80;99.90
27890;DHT22;15238;49.082;9.102;2023-02-07T03:07:56;-1.80;99.90
27890;DHT22;15238;49.082;9.102;2023-02-07T03:10:12;-1.90;99.90
27890;DHT22;15238;49.082;9.102;2023-02-07T03:16:49;-1.90;99.90
27890;DHT22;15238;49.082;9.102;2023-02-07T03:19:09;-1.90;99.90
27890;DHT22;15238;49.082;9.102;2023-02-07T03:21:41;-1.90;99.90
27890;DHT22;15238;49.082;9.102;2023-02-07T03:23:44;-1.90;99.90
27890;DHT22;15238;49.082;9.102;2023-02-07T03:25:47;-1.90;99.90
27890;DHT22;15238;49.082;9.102;2023-02-07T03:27:51;-1.90;99.90
27890;DHT22;15238;49.082;9.102;2023-02-07T03:29:54;-1.90;99.90
27890;DHT22;15238;49.082;9.102;2023-02-07T03:31:58;-1.90;99.90
27890;DHT22;15238;49.082;9.102;2023-02-07T03:34:07;-2.00;99.90
27890;DHT22;15238;49.082;9.102;2023-02-07T03:36:26;-1.90;99.90
27890;DHT22;15238;49.082;9.102;2023-02-07T03:38:27;-2.00;99.90
27890;DHT22;15238;49.082;9.102;2023-02-07T03:40:31;-2.00;99.90
27890;DHT22;15238;49.082;9.102;2023-02-07T03:42:59;-2.00;99.90
27890;DHT22;15238;49.082;9.102;2023-02-07T03:45:03;-2.00;99.90
27890;DHT22;15238;49.082;9.102;2023-02-07T03:47:04;-2.00;99.90
27890;DHT22;15238;49.082;9.102;2023-02-07T03:49:05;-2.00;99.90
27890;DHT22;15238;49.082;9.102;2023-02-07T03:51:10;-2.00;99.90
27890;DHT22;15238;49.082;9.102;2023-02-07T03:53:11;-2.00;99.90
27890;DHT22;15238;49.082;9.102;2023-02-07T03:55:11;-2.10;99.90
27890;DHT22;15238;49.082;9.102;2023-02-07T03:57:12;-2.20;99.90
27890;DHT22;15238;49.082;9.102;2023-02-07T03:59:12;-2.20;99.90
27890;DHT22;15238;49.082;9.102;2023-02-07T04:01:13;-2.20;99.90
27890;DHT22;15238;49.082;9.102;2023-02-07T04:03:13;-2.20;99.90
27890;DHT22;15238;49.082;9.102;2023-02-07T04:05:14;-2.30;99.90
27890;DHT22;15238;49.082;9.102;2023-02-07T04:07:15;-2.30;99.90
27890;DHT22;15238;49.082;9.102;2023-02-07T04:09:15;-2.30;99.90
27890;DHT22;15238;49.082;9.102;2023-02-07T04:11:16;-2.30;99.90
27890;DHT22;15238;49.082;9.102;2023-02-07T04:13:16;-2.30;99.90
27890;DHT22;15238;49.082;9.102;2023-02-07T04:15:17;-2.30;99.90
27890;DHT22;15238;49.082;9.102;2023-02-07T04:17:17;-2.30;99.90
27890;DHT22;15238;49.082;9.102;2023-02-07T04:19:18;-2.40;99.90
27890;DHT22;15238;49.082;9.102;2023-02-07T04:21:18;-2.40;99.90
27890;DHT22;15238;49.082;9.102;2023-02-07T04:23:19;-2.40;99.90
27890;DHT22;15238;49.082;9.102;2023-02-07T04:25:19;-2.40;99.90
27890;DHT22;15238;49.082;9.102;2023-02-07T04:27:20;-2.40;99.90
27890;DHT22;15238;49.082;9.102;2023-02-07T04:29:21;-2.40;99.90
27890;DHT22;15238;49.082;9.102;2023-02-07T04:31:21;-2.40;99.90
27890;DHT22;15238;49.082;9.102;2023-02-07T04:33:22;-2.40;99.90
27890;DHT22;15238;49.082;9.102;2023-02-07T04:35:22;-2.30;99.90
27890;DHT22;15238;49.082;9.102;2023-02-07T04:37:23;-2.30;99.90
27890;DHT22;15238;49.082;9.102;2023-02-07T04:39:24;-2.30;99.90
27890;DHT22;15238;49.082;9.102;2023-02-07T04:41:24;-2.30;99.90
27890;DHT22;15238;49.082;9.102;2023-02-07T04:43:25;-2.30;99.90
27890;DHT22;15238;49.082;9.102;2023-02-07T04:45:25;-2.30;99.90
27890;DHT22;15238;49.082;9.102;2023-02-07T04:47:26;-2.30;99.90
27890;DHT22;15238;49.082;9.102;2023-02-07T04:49:27;-2.30;99.90
27890;DHT22;15238;49.082;9.102;2023-02-07T04:51:27;-2.30;99.90
27890;DHT22;15238;49.082;9.102;2023-02-07T04:53:28;-2.30;99.90
27890;DHT22;15238;49.082;9.102;2023-02-07T04:55:28;-2.30;99.90
27890;DHT22;15238;49.082;9.102;2023-02-07T04:57:29;-2.30;99.90
27890;DHT22;15238;49.082;9.102;2023-02-07T04:59:29;-2.30;99.90
27890;DHT22;15238;49.082;9.102;2023-02-07T05:01:30;-2.30;99.90
27890;DHT22;15238;49.082;9.102;2023-02-07T05:03:31;-2.30;99.90
27890;DHT22;15238;49.082;9.102;2023-02-07T05:05:31;-2.30;99.90
27890;DHT22;15238;49.082;9.102;2023-02-07T05:07:32;-2.30;99.90
27890;DHT22;15238;49.082;9.102;2023-02-07T05:09:32;-2.30;99.90
27890;DHT22;15238;49.082;9.102;2023-02-07T05:11:33;-2.30;99.90
27890;DHT22;15238;49.082;9.102;2023-02-07T05:13:33;-2.40;99.90
27890;DHT22;15238;49.082;9.102;2023-02-07T05:15:35;-2.40;99.90
27890;DHT22;15238;49.082;9.102;2023-02-07T05:17:35;-2.40;99.90
27890;DHT22;15238;49.082;9.102;2023-02-07T05:19:37;-2.40;99.90
27890;DHT22;15238;49.082;9.102;2023-02-07T05:21:38;-2.40;99.90
27890;DHT22;15238;49.082;9.102;2023-02-07T05:23:39;-2.40;99.90
27890;DHT22;15238;49.082;9.102;2023-02-07T05:25:42;-2.50;99.90
27890;DHT22;15238;49.082;9.102;2023-02-07T05:27:43;-2.50;99.90
27890;DHT22;15238;49.082;9.102;2023-02-07T05:29:44;-2.50;99.90
27890;DHT22;15238;49.082;9.102;2023-02-07T05:31:44;-2.50;99.90
27890;DHT22;15238;49.082;9.102;2023-02-07T05:34:03;-2.50;99.90
27890;DHT22;15238;49.082;9.102;2023-02-07T05:36:04;-2.50;99.90
27890;DHT22;15238;49.082;9.102;2023-02-07T05:38:07;-2.60;99.90
27890;DHT22;15238;49.082;9.102;2023-02-07T05:40:09;-2.50;99.90
27890;DHT22;15238;49.082;9.102;2023-02-07T05:42:10;-2.50;99.90
27890;DHT22;15238;49.082;9.102;2023-02-07T05:44:10;-2.50;99.90
27890;DHT22;15238;49.082;9.102;2023-02-07T05:46:11;-2.50;99.90
27890;DHT22;15238;49.082;9.102;2023-02-07T05:48:11;-2.50;99.90
27890;DHT22;15238;49.082;9.102;2023-02-07T05:50:13;-2.50;99.90
27890;DHT22;15238;49.082;9.102;2023-02-07T05:52:14;-2.50;99.90
27890;DHT22;15238;49.082;9.102;2023-02-07T05:54:14;-2.50;99.90
27890;DHT22;15238;49.082;9.102;2023-02-07T05:56:15;-2.50;99.90
27890;DHT22;15238;49.082;9.102;2023-02-07T05:58:15;-2.50;99.90
27890;DHT22;15238;49.082;9.102;2023-02-07T06:00:17;-2.60;99.90
27890;DHT22;15238;49.082;9.102;2023-02-07T06:02:18;-2.60;99.90
27890;DHT22;15238;49.082;9.102;2023-02-07T06:04:18;-2.70;99.90
27890;DHT22;15238;49.082;9.102;2023-02-07T06:06:19;-2.70;99.90
27890;DHT22;15238;49.082;9.102;2023-02-07T06:08:19;-2.70;99.90
27890;DHT22;15238;49.082;9.102;2023-02-07T06:10:20;-2.80;99.90
27890;DHT22;15238;49.082;9.102;2023-02-07T06:12:20;-2.80;99.90
27890;DHT22;15238;49.082;9.102;2023-02-07T06:14:21;-2.80;99.90
27890;DHT22;15238;49.082;9.102;2023-02-07T06:16:22;-2.70;99.90
27890;DHT22;15238;49.082;9.102;2023-02-07T06:18:23;-2.80;99.90
27890;DHT22;15238;49.082;9.102;2023-02-07T06:20:24;-2.80;99.90
27890;DHT22;15238;49.082;9.102;2023-02-07T06:22:24;-2.80;99.90
27890;DHT22;15238;49.082;9.102;2023-02-07T06:24:25;-2.80;99.90
27890;DHT22;15238;49.082;9.102;2023-02-07T06:26:25;-2.80;99.90
27890;DHT22;15238;49.082;9.102;2023-02-07T06:28:26;-2.80;99.90
27890;DHT22;15238;49.082;9.102;2023-02-07T06:30:26;-2.80;99.90
27890;DHT22;15238;49.082;9.102;2023-02-07T06:32:27;-2.80;99.90
27890;DHT22;15238;49.082;9.102;2023-02-07T06:34:27;-2.90;99.90
27890;DHT22;15238;49.082;9.102;2023-02-07T06:36:28;-2.90;99.90
27890;DHT22;15238;49.082;9.102;2023-02-07T06:38:28;-2.90;99.90
27890;DHT22;15238;49.082;9.102;2023-02-07T06:40:29;-2.90;99.90
27890;DHT22;15238;49.082;9.102;2023-02-07T06:42:29;-2.90;99.90
27890;DHT22;15238;49.082;9.102;2023-02-07T06:44:30;-2.90;99.90
27890;DHT22;15238;49.082;9.102;2023-02-07T06:46:31;-2.90;99.90
27890;DHT22;15238;49.082;9.102;2023-02-07T06:48:31;-3.00;99.90
27890;DHT22;15238;49.082;9.102;2023-02-07T06:50:32;-3.00;99.90
27890;DHT22;15238;49.082;9.102;2023-02-07T06:52:32;-3.00;99.90
27890;DHT22;15238;49.082;9.102;2023-02-07T06:54:33;-3.00;99.90
27890;DHT22;15238;49.082;9.102;2023-02-07T06:56:34;-3.00;99.90
27890;DHT22;15238;49.082;9.102;2023-02-07T06:58:34;-3.00;99.90
27890;DHT22;15238;49.082;9.102;2023-02-07T07:00:35;-3.00;99.90
27890;DHT22;15238;49.082;9.102;2023-02-07T07:02:36;-3.00;99.90
27890;DHT22;15238;49.082;9.102;2023-02-07T07:04:36;-3.00;99.90
27890;DHT22;15238;49.082;9.102;2023-02-07T07:06:37;-3.00;99.90
27890;DHT22;15238;49.082;9.102;2023-02-07T07:08:37;-3.00;99.90
27890;DHT22;15238;49.082;9.102;2023-02-07T07:10:38;-3.00;99.90
27890;DHT22;15238;49.082;9.102;2023-02-07T07:12:39;-3.00;99.90
27890;DHT22;15238;49.082;9.102;2023-02-07T07:14:39;-3.10;99.90
27890;DHT22;15238;49.082;9.102;2023-02-07T07:16:40;-3.10;99.90
27890;DHT22;15238;49.082;9.102;2023-02-07T07:18:40;-3.10;99.90
27890;DHT22;15238;49.082;9.102;2023-02-07T07:20:41;-3.10;99.90
27890;DHT22;15238;49.082;9.102;2023-02-07T07:22:41;-3.00;99.90
27890;DHT22;15238;49.082;9.102;2023-02-07T07:24:42;-3.00;99.90
27890;DHT22;15238;49.082;9.102;2023-02-07T07:26:43;-2.90;99.90
27890;DHT22;15238;49.082;9.102;2023-02-07T07:28:43;-2.90;99.90
27890;DHT22;15238;49.082;9.102;2023-02-07T07:30:44;-2.70;99.90
27890;DHT22;15238;49.082;9.102;2023-02-07T07:32:44;-2.60;99.90
27890;DHT22;15238;49.082;9.102;2023-02-07T07:34:45;-2.40;99.90
27890;DHT22;15238;49.082;9.102;2023-02-07T07:36:49;-2.40;99.90
27890;DHT22;15238;49.082;9.102;2023-02-07T07:38:49;-2.40;99.90
27890;DHT22;15238;49.082;9.102;2023-02-07T07:40:50;-2.30;99.90
27890;DHT22;15238;49.082;9.102;2023-02-07T07:42:50;-2.20;99.90
27890;DHT22;15238;49.082;9.102;2023-02-07T07:44:51;-2.20;99.90
27890;DHT22;15238;49.082;9.102;2023-02-07T07:46:51;-2.10;99.90
27890;DHT22;15238;49.082;9.102;2023-02-07T07:48:52;-2.10;99.90
27890;DHT22;15238;49.082;9.102;2023-02-07T07:50:53;-2.10;99.90
27890;DHT22;15238;49.082;9.102;2023-02-07T07:52:53;-2.10;99.90
27890;DHT22;15238;49.082;9.102;2023-02-07T07:54:54;-2.00;99.90
27890;DHT22;15238;49.082;9.102;2023-02-07T07:56:55;-1.90;99.90
27890;DHT22;15238;49.082;9.102;2023-02-07T07:58:55;-1.70;99.90
27890;DHT22;15238;49.082;9.102;2023-02-07T08:00:56;-1.60;99.90
27890;DHT22;15238;49.082;9.102;2023-02-07T08:02:56;-1.70;99.90
27890;DHT22;15238;49.082;9.102;2023-02-07T08:04:57;-1.70;99.90
27890;DHT22;15238;49.082;9.102;2023-02-07T08:06:57;-1.60;99.90
27890;DHT22;15238;49.082;9.102;2023-02-07T08:08:59;-1.60;99.90
27890;DHT22;15238;49.082;9.102;2023-02-07T08:11:02;-1.80;99.90
27890;DHT22;15238;49.082;9.102;2023-02-07T08:13:03;-1.80;99.90
27890;DHT22;15238;49.082;9.102;2023-02-07T08:15:04;-1.70;99.90
27890;DHT22;15238;49.082;9.102;2023-02-07T08:17:07;-1.70;99.90
27890;DHT22;15238;49.082;9.102;2023-02-07T08:19:07;-1.60;99.90
27890;DHT22;15238;49.082;9.102;2023-02-07T08:21:08;-1.50;99.90
27890;DHT22;15238;49.082;9.102;2023-02-07T08:23:09;-1.40;99.90
27890;DHT22;15238;49.082;9.102;2023-02-07T08:25:09;-1.30;99.90
27890;DHT22;15238;49.082;9.102;2023-02-07T08:27:10;-1.30;99.90
27890;DHT22;15238;49.082;9.102;2023-02-07T08:29:11;-1.30;99.90
27890;DHT22;15238;49.082;9.102;2023-02-07T08:31:11;-1.20;99.90
27890;DHT22;15238;49.082;9.102;2023-02-07T08:33:13;-1.20;99.90
27890;DHT22;15238;49.082;9.102;2023-02-07T08:35:13;-1.20;99.90
27890;DHT22;15238;49.082;9.102;2023-02-07T08:37:14;-1.10;99.90
27890;DHT22;15238;49.082;9.102;2023-02-07T08:39:15;-1.00;99.90
27890;DHT22;15238;49.082;9.102;2023-02-07T08:41:16;-1.00;99.90
27890;DHT22;15238;49.082;9.102;2023-02-07T08:43:16;-1.00;99.90
27890;DHT22;15238;49.082;9.102;2023-02-07T08:45:17;-0.90;99.90
27890;DHT22;15238;49.082;9.102;2023-02-07T08:47:17;-0.90;99.90
27890;DHT22;15238;49.082;9.102;2023-02-07T08:49:19;-0.80;99.90
27890;DHT22;15238;49.082;9.102;2023-02-07T08:51:19;-0.70;99.90
27890;DHT22;15238;49.082;9.102;2023-02-07T08:53:20;-0.80;99.90
27890;DHT22;15238;49.082;9.102;2023-02-07T08:55:21;-0.70;99.90
27890;DHT22;15238;49.082;9.102;2023-02-07T08:57:21;-0.70;99.90
27890;DHT22;15238;49.082;9.102;2023-02-07T08:59:25;-0.70;99.90
27890;DHT22;15238;49.082;9.102;2023-02-07T09:01:25;-0.60;99.90
27890;DHT22;15238;49.082;9.102;2023-02-07T09:03:26;-0.50;99.90
27890;DHT22;15238;49.082;9.102;2023-02-07T09:05:27;-0.50;99.90
27890;DHT22;15238;49.082;9.102;2023-02-07T09:07:27;-0.50;99.90
27890;DHT22;15238;49.082;9.102;2023-02-07T09:09:28;-0.50;99.90
27890;DHT22;15238;49.082;9.102;2023-02-07T09:11:28;-0.50;99.90
27890;DHT22;15238;49.082;9.102;2023-02-07T09:13:29;-0.50;99.90
27890;DHT22;15238;49.082;9.102;2023-02-07T09:15:29;-0.40;99.90
27890;DHT22;15238;49.082;9.102;2023-02-07T09:17:30;-0.40;99.90
27890;DHT22;15238;49.082;9.102;2023-02-07T09:19:31;-0.40;99.90
27890;DHT22;15238;49.082;9.102;2023-02-07T09:21:32;-0.30;99.90
27890;DHT22;15238;49.082;9.102;2023-02-07T09:23:32;-0.30;99.90
27890;DHT22;15238;49.082;9.102;2023-02-07T09:25:36;-0.20;99.90
27890;DHT22;15238;49.082;9.102;2023-02-07T09:27:37;-0.20;99.90
27890;DHT22;15238;49.082;9.102;2023-02-07T09:29:38;-0.20;99.90
27890;DHT22;15238;49.082;9.102;2023-02-07T09:31:38;-0.20;99.90
27890;DHT22;15238;49.082;9.102;2023-02-07T09:33:39;-0.10;99.90
27890;DHT22;15238;49.082;9.102;2023-02-07T09:35:42;0.00;99.90
27890;DHT22;15238;49.082;9.102;2023-02-07T09:37:43;0.10;99.90
27890;DHT22;15238;49.082;9.102;2023-02-07T09:39:43;0.10;99.90
27890;DHT22;15238;49.082;9.102;2023-02-07T09:46:32;0.30;99.90
27890;DHT22;15238;49.082;9.102;2023-02-07T09:48:54;0.30;99.90
27890;DHT22;15238;49.082;9.102;2023-02-07T09:51:02;0.30;99.90
27890;DHT22;15238;49.082;9.102;2023-02-07T09:53:15;0.20;99.90
27890;DHT22;15238;49.082;9.102;2023-02-07T09:55:20;0.00;99.90
27890;DHT22;15238;49.082;9.102;2023-02-07T09:57:27;0.10;99.90
27890;DHT22;15238;49.082;9.102;2023-02-07T10:01:59;0.10;99.90
27890;DHT22;15238;49.082;9.102;2023-02-07T10:04:06;0.10;99.90
27890;DHT22;15238;49.082;9.102;2023-02-07T10:06:15;0.10;99.90
27890;DHT22;15238;49.082;9.102;2023-02-07T10:08:17;0.20;99.90
27890;DHT22;15238;49.082;9.102;2023-02-07T10:10:35;0.20;99.90
27890;DHT22;15238;49.082;9.102;2023-02-07T10:15:08;0.30;99.90
27890;DHT22;15238;49.082;9.102;2023-02-07T10:17:34;0.40;99.90
27890;DHT22;15238;49.082;9.102;2023-02-07T10:20:15;0.50;99.90
27890;DHT22;15238;49.082;9.102;2023-02-07T10:22:48;0.50;99.90
27890;DHT22;15238;49.082;9.102;2023-02-07T10:30:15;0.80;99.90
27890;DHT22;15238;49.082;9.102;2023-02-07T10:32:21;0.90;99.90
27890;DHT22;15238;49.082;9.102;2023-02-07T10:34:27;0.90;99.90
27890;DHT22;15238;49.082;9.102;2023-02-07T10:36:31;0.80;99.90
27890;DHT22;15238;49.082;9.102;2023-02-07T10:41:34;0.90;99.90
27890;DHT22;15238;49.082;9.102;2023-02-07T10:43:37;0.90;99.90
27890;DHT22;15238;49.082;9.102;2023-02-07T10:45:40;1.00;99.90
27890;DHT22;15238;49.082;9.102;2023-02-07T10:47:41;1.00;99.90
27890;DHT22;15238;49.082;9.102;2023-02-07T10:49:44;1.00;99.90
27890;DHT22;15238;49.082;9.102;2023-02-07T10:51:46;1.00;99.90
27890;DHT22;15238;49.082;9.102;2023-02-07T10:53:59;1.10;99.90
27890;DHT22;15238;49.082;9.102;2023-02-07T10:56:01;1.10;99.90
27890;DHT22;15238;49.082;9.102;2023-02-07T10:58:01;1.20;99.90
27890;DHT22;15238;49.082;9.102;2023-02-07T11:00:22;1.30;99.90
27890;DHT22;15238;49.082;9.102;2023-02-07T11:04:37;1.20;99.90
27890;DHT22;15238;49.082;9.102;2023-02-07T11:06:39;1.30;99.90
27890;DHT22;15238;49.082;9.102;2023-02-07T11:08:40;1.30;99.90
27890;DHT22;15238;49.082;9.102;2023-02-07T11:10:46;1.40;99.90
27890;DHT22;15238;49.082;9.102;2023-02-07T11:12:48;1.30;99.90
27890;DHT22;15238;49.082;9.102;2023-02-07T11:15:04;1.40;99.90
27890;DHT22;15238;49.082;9.102;2023-02-07T11:17:16;1.40;99.90
27890;DHT22;15238;49.082;9.102;2023-02-07T11:19:23;1.50;99.90
27890;DHT22;15238;49.082;9.102;2023-02-07T11:21:44;1.50;99.90
27890;DHT22;15238;49.082;9.102;2023-02-07T11:23:46;1.60;99.90
27890;DHT22;15238;49.082;9.102;2023-02-07T11:25:53;1.60;99.90
27890;DHT22;15238;49.082;9.102;2023-02-07T11:27:54;1.60;99.90
27890;DHT22;15238;49.082;9.102;2023-02-07T11:30:04;1.60;99.90
27890;DHT22;15238;49.082;9.102;2023-02-07T11:32:06;1.70;99.90
27890;DHT22;15238;49.082;9.102;2023-02-07T11:34:39;1.70;99.90
27890;DHT22;15238;49.082;9.102;2023-02-07T11:36:40;1.70;99.90
27890;DHT22;15238;49.082;9.102;2023-02-07T11:38:46;1.80;99.90
27890;DHT22;15238;49.082;9.102;2023-02-07T11:40:47;1.90;99.90
27890;DHT22;15238;49.082;9.102;2023-02-07T11:42:57;1.90;99.90
27890;DHT22;15238;49.082;9.102;2023-02-07T11:45:04;1.90;99.90
27890;DHT22;15238;49.082;9.102;2023-02-07T11:47:04;2.00;99.90
27890;DHT22;15238;49.082;9.102;2023-02-07T11:49:41;1.90;99.90
27890;DHT22;15238;49.082;9.102;2023-02-07T11:51:34;2.10;99.90
27890;DHT22;15238;49.082;9.102;2023-02-07T11:53:42;2.10;99.90
27890;DHT22;15238;49.082;9.102;2023-02-07T11:55:44;2.00;99.90
27890;DHT22;15238;49.082;9.102;2023-02-07T11:57:45;1.90;99.90
27890;DHT22;15238;49.082;9.102;2023-02-07T12:01:57;2.00;99.90
27890;DHT22;15238;49.082;9.102;2023-02-07T12:04:08;2.00;99.90
27890;DHT22;15238;49.082;9.102;2023-02-07T12:06:18;2.00;99.90
27890;DHT22;15238;49.082;9.102;2023-02-07T12:08:24;2.10;99.90
27890;DHT22;15238;49.082;9.102;2023-02-07T12:10:29;2.20;99.90
27890;DHT22;15238;49.082;9.102;2023-02-07T12:12:53;2.30;99.90
27890;DHT22;15238;49.082;9.102;2023-02-07T12:15:21;2.30;99.90
27890;DHT22;15238;49.082;9.102;2023-02-07T12:17:30;2.40;99.90
27890;DHT22;15238;49.082;9.102;2023-02-07T12:19:51;2.40;99.90
27890;DHT22;15238;49.082;9.102;2023-02-07T12:22:13;2.40;99.90
27890;DHT22;15238;49.082;9.102;2023-02-07T12:24:22;2.50;99.90
27890;DHT22;15238;49.082;9.102;2023-02-07T12:26:32;2.60;99.90
27890;DHT22;15238;49.082;9.102;2023-02-07T12:31:27;2.60;99.90
27890;DHT22;15238;49.082;9.102;2023-02-07T12:33:49;2.50;99.90
27890;DHT22;15238;49.082;9.102;2023-02-07T12:36:08;2.50;99.90
27890;DHT22;15238;49.082;9.102;2023-02-07T12:43:24;2.70;99.90
27890;DHT22;15238;49.082;9.102;2023-02-07T12:45:06;2.80;99.90
27890;DHT22;15238;49.082;9.102;2023-02-07T12:50:07;3.00;99.90
27890;DHT22;15238;49.082;9.102;2023-02-07T12:52:17;3.00;99.90
27890;DHT22;15238;49.082;9.102;2023-02-07T12:56:51;2.90;99.90
27890;DHT22;15238;49.082;9.102;2023-02-07T12:59:08;3.00;99.90
27890;DHT22;15238;49.082;9.102;2023-02-07T13:01:21;3.00;99.90
27890;DHT22;15238;49.082;9.102;2023-02-07T13:08:22;3.10;99.90
27890;DHT22;15238;49.082;9.102;2023-02-07T13:12:35;3.40;99.90
27890;DHT22;15238;49.082;9.102;2023-02-07T13:17:16;3.40;99.90
27890;DHT22;15238;49.082;9.102;2023-02-07T13:19:46;3.50;99.90
27890;DHT22;15238;49.082;9.102;2023-02-07T13:24:00;3.40;99.90
27890;DHT22;15238;49.082;9.102;2023-02-07T13:26:09;3.50;99.90
27890;DHT22;15238;49.082;9.102;2023-02-07T13:28:19;3.50;99.90
27890;DHT22;15238;49.082;9.102;2023-02-07T13:30:22;3.50;99.90
27890;DHT22;15238;49.082;9.102;2023-02-07T13:32:27;3.60;99.90
27890;DHT22;15238;49.082;9.102;2023-02-07T13:34:34;3.60;99.90
27890;DHT22;15238;49.082;9.102;2023-02-07T13:36:44;3.60;99.90
27890;DHT22;15238;49.082;9.102;2023-02-07T13:41:14;3.60;99.90
27890;DHT22;15238;49.082;9.102;2023-02-07T13:44:07;3.60;99.80
27890;DHT22;15238;49.082;9.102;2023-02-07T13:47:18;3.60;99.90
27890;DHT22;15238;49.082;9.102;2023-02-07T13:51:50;3.70;99.90
27890;DHT22;15238;49.082;9.102;2023-02-07T13:56:30;3.90;99.90
27890;DHT22;15238;49.082;9.102;2023-02-07T13:58:50;4.00;99.90
27890;DHT22;15238;49.082;9.102;2023-02-07T14:01:14;3.90;98.90
27890;DHT22;15238;49.082;9.102;2023-02-07T14:03:32;3.90;99.90
27890;DHT22;15238;49.082;9.102;2023-02-07T14:05:38;4.00;99.90
27890;DHT22;15238;49.082;9.102;2023-02-07T14:07:40;3.90;98.40
27890;DHT22;15238;49.082;9.102;2023-02-07T14:09:46;3.80;99.60
27890;DHT22;15238;49.082;9.102;2023-02-07T14:11:55;3.80;99.90
27890;DHT22;15238;49.082;9.102;2023-02-07T14:14:12;3.80;99.90
27890;DHT22;15238;49.082;9.102;2023-02-07T14:16:47;3.80;99.90
27890;DHT22;15238;49.082;9.102;2023-02-07T14:18:51;3.80;99.40
27890;DHT22;15238;49.082;9.102;2023-02-07T14:21:02;3.80;99.40
27890;DHT22;15238;49.082;9.102;2023-02-07T14:23:16;3.80;98.80
27890;DHT22;15238;49.082;9.102;2023-02-07T14:25:23;3.80;99.60
27890;DHT22;15238;49.082;9.102;2023-02-07T14:28:06;3.80;99.90
27890;DHT22;15238;49.082;9.102;2023-02-07T14:30:27;3.80;98.60
27890;DHT22;15238;49.082;9.102;2023-02-07T14:33:10;3.80;99.90
27890;DHT22;15238;49.082;9.102;2023-02-07T14:37:40;3.70;98.20
27890;DHT22;15238;49.082;9.102;2023-02-07T14:39:46;3.70;99.00